createdAt,value
2023-02-27T00:01:43.000Z,-0.29
2023-02-27T00:04:26.107Z,-0.21
2023-02-27T00:07:09.274Z,-0.20
2023-02-27T00:09:09.761Z,-0.31
2023-02-27T00:11:10.287Z,-0.34
2023-02-27T00:13:10.773Z,-0.39
2023-02-27T00:15:11.401Z,-0.47
2023-02-27T00:17:11.795Z,-0.46
2023-02-27T00:19:12.197Z,-0.47
2023-02-27T00:21:12.561Z,-0.49
2023-02-27T00:23:12.861Z,-0.44
2023-02-27T00:25:13.151Z,-0.35
2023-02-27T00:27:13.456Z,-0.32
2023-02-27T00:29:13.992Z,-0.36
2023-02-27T00:31:14.337Z,-0.36
2023-02-27T00:33:14.616Z,-0.36
2023-02-27T00:35:14.975Z,-0.32
2023-02-27T00:37:15.416Z,-0.35
2023-02-27T00:39:15.717Z,-0.35
2023-02-27T00:41:15.999Z,-0.39
2023-02-27T00:43:16.310Z,-0.41
2023-02-27T00:45:16.902Z,-0.46
2023-02-27T00:47:17.143Z,-0.47
2023-02-27T00:49:17.458Z,-0.14
2023-02-27T00:51:17.734Z,-0.02
2023-02-27T00:53:18.121Z,-0.10
2023-02-27T00:55:18.389Z,-0.26
2023-02-27T00:57:18.721Z,-0.39
2023-02-27T00:59:18.976Z,-0.49
2023-02-27T01:01:19.323Z,-0.52
2023-02-27T01:03:19.584Z,-0.49
2023-02-27T01:05:19.880Z,-0.36
2023-02-27T01:07:20.176Z,-0.36
2023-02-27T01:09:20.617Z,-0.39
2023-02-27T01:11:22.508Z,-0.39
2023-02-27T01:13:22.796Z,-0.34
2023-02-27T01:15:23.074Z,-0.38
2023-02-27T01:17:23.400Z,-0.36
2023-02-27T01:19:23.662Z,-0.32
2023-02-27T01:21:24.135Z,-0.34
2023-02-27T01:23:24.705Z,-0.38
2023-02-27T01:25:29.820Z,-0.36
2023-02-27T01:27:30.632Z,-0.38
2023-02-27T01:29:30.922Z,-0.35
2023-02-27T01:31:31.317Z,-0.38
2023-02-27T01:33:31.597Z,-0.50
2023-02-27T01:35:31.910Z,-0.56
2023-02-27T01:37:32.146Z,-0.52
2023-02-27T01:39:32.456Z,-0.32
2023-02-27T01:41:32.767Z,-0.34
2023-02-27T01:43:33.061Z,-0.41
2023-02-27T01:45:33.432Z,-0.36
2023-02-27T01:47:33.706Z,-0.47
2023-02-27T01:49:33.995Z,-0.54
2023-02-27T01:51:34.298Z,-0.61
2023-02-27T01:53:34.655Z,-0.53
2023-02-27T01:55:34.899Z,-0.50
2023-02-27T01:57:35.253Z,-0.54
2023-02-27T01:59:35.519Z,-0.54
2023-02-27T02:01:35.908Z,-0.54
2023-02-27T02:03:36.159Z,-0.54
2023-02-27T02:05:36.432Z,-0.61
2023-02-27T02:07:36.803Z,-0.64
2023-02-27T02:09:37.099Z,-0.67
2023-02-27T02:11:38.020Z,-0.71
2023-02-27T02:13:38.278Z,-0.71
2023-02-27T02:15:38.610Z,-0.75
2023-02-27T02:17:38.906Z,-0.74
2023-02-27T02:19:39.200Z,-0.75
2023-02-27T02:21:39.486Z,-0.72
2023-02-27T02:23:39.791Z,-0.72
2023-02-27T02:25:40.066Z,-0.75
2023-02-27T02:27:40.427Z,-0.80
2023-02-27T02:29:40.719Z,-0.75
2023-02-27T02:31:41.148Z,-0.75
2023-02-27T02:33:41.458Z,-0.71
2023-02-27T02:35:41.831Z,-0.85
2023-02-27T02:37:42.096Z,-0.94
2023-02-27T02:39:42.415Z,-0.94
2023-02-27T02:41:43.522Z,-0.97
2023-02-27T02:43:43.876Z,-0.99
2023-02-27T02:45:44.184Z,-1.09
2023-02-27T02:47:44.463Z,-1.14
2023-02-27T02:49:44.707Z,-1.15
2023-02-27T02:51:45.148Z,-0.97
2023-02-27T02:53:45.449Z,-0.93
2023-02-27T02:55:45.846Z,-0.91
2023-02-27T02:57:46.624Z,-0.93
2023-02-27T02:59:46.932Z,-0.86
2023-02-27T03:01:47.287Z,-0.93
2023-02-27T03:03:47.636Z,-1.07
2023-02-27T03:05:47.966Z,-1.02
2023-02-27T03:07:49.030Z,-1.09
2023-02-27T03:09:49.374Z,-1.14
2023-02-27T03:11:49.631Z,-1.11
2023-02-27T03:13:49.956Z,-1.11
2023-02-27T03:15:50.253Z,-1.15
2023-02-27T03:17:50.538Z,-1.26
2023-02-27T03:19:50.840Z,-1.27
2023-02-27T03:21:51.136Z,-1.25
2023-02-27T03:23:51.481Z,-1.20
2023-02-27T03:25:51.761Z,-1.19
2023-02-27T03:27:52.070Z,-1.23
2023-02-27T03:29:52.352Z,-1.15
2023-02-27T03:31:53.614Z,-1.20
2023-02-27T03:33:53.939Z,-1.17
2023-02-27T03:35:54.231Z,-1.26
2023-02-27T03:37:54.678Z,-1.25
2023-02-27T03:39:55.064Z,-1.17
2023-02-27T03:41:55.428Z,-1.19
2023-02-27T03:43:55.648Z,-1.12
2023-02-27T03:45:56.114Z,-1.02
2023-02-27T03:47:56.437Z,-0.94
2023-02-27T03:49:56.718Z,-0.96
2023-02-27T03:51:57.820Z,-0.91
2023-02-27T03:53:59.024Z,-0.82
2023-02-27T03:55:59.329Z,-0.80
2023-02-27T03:57:59.607Z,-0.78
2023-02-27T03:59:59.926Z,-0.78
2023-02-27T04:02:00.351Z,-0.77
2023-02-27T04:04:00.601Z,-0.77
2023-02-27T04:06:01.004Z,-0.72
2023-02-27T04:08:01.257Z,-0.75
2023-02-27T04:10:01.547Z,-0.74
2023-02-27T04:12:01.888Z,-0.56
2023-02-27T04:14:02.288Z,-0.61
2023-02-27T04:16:02.587Z,-0.72
2023-02-27T04:18:02.873Z,-0.72
2023-02-27T04:20:03.259Z,-0.75
2023-02-27T04:22:03.490Z,-0.82
2023-02-27T04:24:03.821Z,-0.74
2023-02-27T04:26:04.077Z,-0.72
2023-02-27T04:28:04.443Z,-0.74
2023-02-27T04:30:04.741Z,-0.67
2023-02-27T04:32:05.047Z,-0.72
2023-02-27T04:34:05.339Z,-0.77
2023-02-27T04:36:05.618Z,-0.77
2023-02-27T04:38:05.989Z,-0.77
2023-02-27T04:40:06.280Z,-0.77
2023-02-27T04:42:06.616Z,-0.74
2023-02-27T04:44:06.860Z,-0.91
2023-02-27T04:46:07.213Z,-1.12
2023-02-27T04:48:07.543Z,-1.38
2023-02-27T04:50:07.808Z,-1.64
2023-02-27T04:52:08.113Z,-1.82
2023-02-27T04:54:08.409Z,-1.92
2023-02-27T04:56:08.717Z,-2.01
2023-02-27T04:58:08.992Z,-2.08
2023-02-27T05:00:09.423Z,-2.19
2023-02-27T05:02:09.752Z,-2.26
2023-02-27T05:04:10.080Z,-2.30
2023-02-27T05:06:10.366Z,-2.32
2023-02-27T05:08:11.408Z,-2.35
2023-02-27T05:10:11.717Z,-2.35
2023-02-27T05:12:11.996Z,-2.41
2023-02-27T05:14:12.258Z,-2.44
2023-02-27T05:16:12.687Z,-2.47
2023-02-27T05:18:13.061Z,-2.45
2023-02-27T05:20:13.422Z,-2.44
2023-02-27T05:22:13.691Z,-2.47
2023-02-27T05:24:14.017Z,-2.56
2023-02-27T05:26:14.342Z,-2.59
2023-02-27T05:28:14.605Z,-2.59
2023-02-27T05:30:15.027Z,-2.59
2023-02-27T05:33:13.216Z,-2.63
2023-02-27T05:35:13.672Z,-2.66
2023-02-27T05:37:14.039Z,-2.71
2023-02-27T05:39:14.395Z,-2.76
2023-02-27T05:41:14.822Z,-2.83
2023-02-27T05:43:15.283Z,-2.89
2023-02-27T05:45:16.029Z,-2.84
2023-02-27T05:47:16.378Z,-2.77
2023-02-27T05:49:16.865Z,-2.62
2023-02-27T05:51:17.180Z,-2.50
2023-02-27T05:53:17.449Z,-2.38
2023-02-27T05:55:18.840Z,-2.16
2023-02-27T05:57:19.228Z,-2.10
2023-02-27T05:59:19.560Z,-1.95
2023-02-27T06:01:19.877Z,-1.83
2023-02-27T06:03:20.193Z,-1.77
2023-02-27T06:05:20.548Z,-1.56
2023-02-27T06:07:20.836Z,-1.51
2023-02-27T06:09:21.087Z,-1.59
2023-02-27T06:11:21.372Z,-1.61
2023-02-27T06:13:21.728Z,-1.59
2023-02-27T06:15:22.022Z,-1.56
2023-02-27T06:17:22.336Z,-1.51
2023-02-27T06:19:22.611Z,-1.46
2023-02-27T06:21:23.017Z,-1.54
2023-02-27T06:23:23.342Z,-1.38
2023-02-27T06:25:23.597Z,-1.29
2023-02-27T06:27:23.893Z,-1.23
2023-02-27T06:29:24.248Z,-1.20
2023-02-27T06:31:24.523Z,-1.27
2023-02-27T06:33:24.818Z,-1.29
2023-02-27T06:35:25.109Z,-1.30
2023-02-27T06:37:25.965Z,-1.32
2023-02-27T06:39:26.250Z,-1.26
2023-02-27T06:41:26.580Z,-1.15
2023-02-27T06:43:26.850Z,-1.11
2023-02-27T06:45:27.162Z,-1.09
2023-02-27T06:47:27.474Z,-1.12
2023-02-27T06:49:27.843Z,-1.17
2023-02-27T06:51:28.132Z,-1.09
2023-02-27T06:53:28.394Z,-0.99
2023-02-27T06:55:28.707Z,-0.99
2023-02-27T06:57:28.961Z,-0.97
2023-02-27T06:59:29.291Z,-0.91
2023-02-27T07:01:29.619Z,-0.82
2023-02-27T07:03:29.955Z,-0.86
2023-02-27T07:05:30.208Z,-0.75
2023-02-27T07:07:33.185Z,-0.71
2023-02-27T07:09:35.684Z,-0.65
2023-02-27T07:11:35.995Z,-0.56
2023-02-27T07:13:36.534Z,-0.53
2023-02-27T07:15:36.817Z,-0.50
2023-02-27T07:17:37.121Z,-0.53
2023-02-27T07:19:37.426Z,-0.47
2023-02-27T07:21:37.720Z,-0.31
2023-02-27T07:23:38.153Z,-0.28
2023-02-27T07:25:38.443Z,-0.18
2023-02-27T07:27:38.765Z,-0.11
2023-02-27T07:29:39.038Z,-0.07
2023-02-27T07:31:39.477Z,-0.02
2023-02-27T07:33:39.846Z,0.04
2023-02-27T07:35:40.129Z,0.11
2023-02-27T07:37:45.321Z,0.19
2023-02-27T07:39:45.562Z,0.19
2023-02-27T07:41:45.897Z,0.21
2023-02-27T07:43:46.196Z,0.23
2023-02-27T07:45:46.476Z,0.26
2023-02-27T07:47:46.809Z,0.31
2023-02-27T07:49:47.130Z,0.39
2023-02-27T07:51:47.398Z,0.40
2023-02-27T07:53:47.724Z,0.47
2023-02-27T07:55:47.984Z,0.59
2023-02-27T07:57:48.251Z,0.69
2023-02-27T07:59:48.637Z,0.76
2023-02-27T08:01:48.959Z,0.81
2023-02-27T08:03:49.279Z,0.84
2023-02-27T08:05:49.534Z,0.88
2023-02-27T08:07:49.835Z,0.94
2023-02-27T08:09:50.149Z,0.95
2023-02-27T08:11:50.505Z,1.02
2023-02-27T08:14:06.155Z,1.05
2023-02-27T08:15:56.048Z,1.10
2023-02-27T08:17:56.313Z,1.16
2023-02-27T08:19:56.617Z,1.28
2023-02-27T08:21:56.974Z,1.32
2023-02-27T08:23:57.230Z,1.38
2023-02-27T08:25:57.543Z,1.45
2023-02-27T08:27:57.865Z,1.48
2023-02-27T08:29:58.185Z,1.48
2023-02-27T08:31:58.763Z,1.52
2023-02-27T08:34:09.455Z,1.56
2023-02-27T08:36:04.420Z,1.66
2023-02-27T08:38:04.857Z,1.67
2023-02-27T08:40:05.087Z,1.71
2023-02-27T08:42:05.389Z,1.78
2023-02-27T08:44:05.735Z,1.85
2023-02-27T08:46:06.214Z,1.87
2023-02-27T08:48:06.584Z,1.97
2023-02-27T08:50:06.894Z,2.06
2023-02-27T08:52:07.262Z,2.10
2023-02-27T08:54:07.551Z,2.02
2023-02-27T08:56:07.881Z,2.10
2023-02-27T08:58:08.148Z,2.14
2023-02-27T09:00:08.488Z,2.25
2023-02-27T09:02:08.730Z,2.28
2023-02-27T09:04:09.123Z,2.31
2023-02-27T09:06:09.419Z,2.42
2023-02-27T09:08:09.724Z,2.53
2023-02-27T09:10:10.026Z,2.46
2023-02-27T09:12:10.314Z,2.49
2023-02-27T09:14:10.604Z,2.57
2023-02-27T09:16:10.952Z,2.62
2023-02-27T09:18:11.206Z,2.62
2023-02-27T09:20:11.476Z,2.74
2023-02-27T09:22:11.799Z,2.79
2023-02-27T09:24:19.894Z,2.93
2023-02-27T09:26:17.293Z,2.98
2023-02-27T09:28:17.636Z,2.87
2023-02-27T09:30:17.893Z,2.92
2023-02-27T09:32:18.268Z,3.00
2023-02-27T09:34:18.553Z,3.04
2023-02-27T09:36:18.849Z,3.16
2023-02-27T09:38:19.220Z,3.19
2023-02-27T09:40:19.516Z,3.19
2023-02-27T09:42:19.773Z,3.13
2023-02-27T09:44:27.358Z,3.19
2023-02-27T09:46:25.802Z,3.21
2023-02-27T09:48:26.219Z,3.16
2023-02-27T09:50:26.534Z,3.44
2023-02-27T09:52:27.072Z,3.36
2023-02-27T09:54:27.358Z,3.31
2023-02-27T09:56:28.047Z,3.31
2023-02-27T09:58:28.415Z,3.48
2023-02-27T10:00:28.772Z,3.66
2023-02-27T10:02:29.128Z,3.69
2023-02-27T10:04:29.433Z,3.58
2023-02-27T10:06:30.088Z,3.58
2023-02-27T10:08:30.687Z,3.63
2023-02-27T10:10:30.953Z,3.73
2023-02-27T10:12:31.266Z,3.87
2023-02-27T10:14:31.624Z,3.84
2023-02-27T10:16:31.934Z,3.77
2023-02-27T10:18:32.220Z,3.87
2023-02-27T10:20:32.530Z,3.92
2023-02-27T10:22:32.863Z,3.95
2023-02-27T10:24:33.113Z,3.95
2023-02-27T10:26:33.419Z,4.05
2023-02-27T10:28:33.744Z,3.83
2023-02-27T10:30:35.088Z,3.78
2023-02-27T10:32:35.580Z,3.81
2023-02-27T10:34:35.906Z,4.04
2023-02-27T10:37:17.768Z,4.10
2023-02-27T10:39:18.239Z,4.01
2023-02-27T10:41:18.568Z,4.10
2023-02-27T10:43:18.869Z,4.38
2023-02-27T10:45:19.201Z,4.50
2023-02-27T10:47:19.510Z,4.41
2023-02-27T10:49:19.860Z,4.45
2023-02-27T10:51:20.176Z,4.48
2023-02-27T10:53:20.937Z,4.48
2023-02-27T10:55:21.391Z,4.49
2023-02-27T10:57:21.690Z,4.34
2023-02-27T10:59:22.002Z,4.50
2023-02-27T11:01:22.348Z,4.58
2023-02-27T11:03:23.290Z,4.73
2023-02-27T11:05:23.587Z,4.80
2023-02-27T11:07:23.900Z,4.67
2023-02-27T11:09:24.257Z,4.68
2023-02-27T11:11:24.589Z,4.97
2023-02-27T11:13:24.930Z,4.62
2023-02-27T11:15:25.286Z,4.66
2023-02-27T11:17:25.640Z,4.67
2023-02-27T11:19:25.953Z,4.94
2023-02-27T11:21:26.853Z,5.00
2023-02-27T11:23:27.533Z,5.10
2023-02-27T11:25:31.013Z,5.38
2023-02-27T11:27:31.247Z,5.21
2023-02-27T11:29:31.654Z,5.12
2023-02-27T11:31:32.114Z,5.36
2023-02-27T11:33:32.400Z,5.75
2023-02-27T11:35:32.736Z,5.82
2023-02-27T11:37:33.393Z,6.04
2023-02-27T11:39:33.699Z,6.31
2023-02-27T11:41:34.004Z,6.41
2023-02-27T11:43:34.313Z,6.11
2023-02-27T11:46:04.190Z,6.33
2023-02-27T11:47:39.940Z,6.66
2023-02-27T11:49:40.244Z,6.79
2023-02-27T11:51:40.703Z,6.62
2023-02-27T11:53:40.945Z,6.44
2023-02-27T11:55:41.232Z,6.46
2023-02-27T11:57:41.549Z,6.19
2023-02-27T11:59:41.942Z,6.39
2023-02-27T12:01:42.925Z,6.01
2023-02-27T12:03:43.692Z,6.39
2023-02-27T12:05:44.475Z,6.62
2023-02-27T12:07:44.938Z,6.79
2023-02-27T12:09:45.320Z,6.60
2023-02-27T12:11:45.677Z,6.59
2023-02-27T12:13:46.014Z,6.62
2023-02-27T12:15:46.353Z,6.72
2023-02-27T12:17:46.577Z,6.97
2023-02-27T12:19:46.997Z,6.70
2023-02-27T12:21:49.218Z,6.93
2023-02-27T12:23:49.981Z,7.03
2023-02-27T12:25:50.232Z,6.82
2023-02-27T12:27:50.655Z,6.85
2023-02-27T12:29:51.082Z,6.95
2023-02-27T12:31:51.477Z,6.81
2023-02-27T12:33:51.825Z,7.06
2023-02-27T12:35:52.235Z,6.52
2023-02-27T12:37:52.531Z,6.57
2023-02-27T12:39:52.856Z,6.89
2023-02-27T12:41:53.148Z,6.82
2023-02-27T12:43:53.440Z,7.03
2023-02-27T12:45:53.868Z,6.85
2023-02-27T12:47:54.814Z,6.79
2023-02-27T12:49:55.100Z,6.84
2023-02-27T12:51:55.476Z,6.88
2023-02-27T12:53:55.733Z,6.85
2023-02-27T12:55:56.139Z,6.92
2023-02-27T12:57:56.461Z,6.87
2023-02-27T12:59:56.772Z,7.11
2023-02-27T13:01:57.438Z,6.75
2023-02-27T13:03:57.806Z,6.82
2023-02-27T13:05:58.116Z,7.02
2023-02-27T13:07:58.428Z,7.11
2023-02-27T13:09:58.917Z,7.03
2023-02-27T13:11:59.222Z,6.99
2023-02-27T13:13:59.519Z,6.88
2023-02-27T13:15:59.862Z,7.18
2023-02-27T13:18:00.147Z,7.28
2023-02-27T13:20:00.418Z,7.80
2023-02-27T13:22:00.811Z,8.33
2023-02-27T13:24:01.061Z,7.91
2023-02-27T13:26:01.381Z,7.61
2023-02-27T13:28:01.718Z,7.32
2023-02-27T13:30:01.997Z,7.31
2023-02-27T13:32:02.417Z,6.79
2023-02-27T13:34:02.804Z,6.52
2023-02-27T13:36:03.059Z,7.05
2023-02-27T13:38:03.364Z,7.23
2023-02-27T13:40:03.690Z,6.28
2023-02-27T13:42:03.992Z,6.46
2023-02-27T13:44:04.362Z,6.78
2023-02-27T13:46:04.656Z,6.88
2023-02-27T13:48:05.005Z,6.97
2023-02-27T13:50:05.431Z,7.17
2023-02-27T13:52:05.731Z,7.28
2023-02-27T13:54:06.057Z,7.29
2023-02-27T13:56:06.522Z,7.05
2023-02-27T13:58:06.930Z,7.10
2023-02-27T14:00:07.270Z,7.05
2023-02-27T14:02:07.612Z,6.72
2023-02-27T14:04:08.066Z,6.64
2023-02-27T14:06:08.369Z,6.85
2023-02-27T14:08:08.744Z,6.79
2023-02-27T14:10:11.401Z,6.81
2023-02-27T14:12:12.364Z,6.97
2023-02-27T14:14:12.707Z,7.11
2023-02-27T14:16:13.011Z,7.13
2023-02-27T14:18:25.713Z,7.06
2023-02-27T14:20:18.607Z,6.81
2023-02-27T14:22:18.919Z,6.84
2023-02-27T14:24:19.278Z,6.66
2023-02-27T14:26:19.570Z,6.70
2023-02-27T14:28:19.999Z,6.77
2023-02-27T14:30:20.683Z,6.92
2023-02-27T14:32:21.053Z,6.74
2023-02-27T14:34:21.408Z,6.63
2023-02-27T14:36:21.725Z,6.62
2023-02-27T14:38:22.137Z,6.64
2023-02-27T14:40:29.666Z,6.63
2023-02-27T14:42:27.715Z,6.70
2023-02-27T14:44:28.061Z,6.77
2023-02-27T14:46:28.418Z,6.84
2023-02-27T14:48:28.864Z,6.96
2023-02-27T14:50:29.225Z,7.10
2023-02-27T14:52:29.583Z,7.03
2023-02-27T14:54:29.884Z,6.96
2023-02-27T14:56:30.313Z,7.10
2023-02-27T14:58:30.590Z,7.06
2023-02-27T15:00:30.935Z,6.97
2023-02-27T15:02:31.266Z,6.30
2023-02-27T15:04:31.713Z,6.30
2023-02-27T15:06:32.105Z,6.42
2023-02-27T15:08:32.462Z,6.51
2023-02-27T15:10:32.723Z,6.57
2023-02-27T15:12:33.058Z,6.44
2023-02-27T15:14:33.331Z,6.70
2023-02-27T17:37:00.228Z,2.44
2023-02-27T17:39:00.484Z,2.50
2023-02-27T17:41:00.836Z,2.38
2023-02-27T17:43:01.127Z,2.53
2023-02-27T17:45:01.430Z,2.57
2023-02-27T17:47:01.772Z,2.60
2023-02-27T17:49:02.119Z,2.56
2023-02-27T17:51:02.411Z,2.50
2023-02-27T17:53:02.722Z,2.39
2023-02-27T17:55:03.199Z,2.28
2023-02-27T17:57:03.465Z,2.18
2023-02-27T17:59:03.815Z,2.18
2023-02-27T18:01:04.131Z,2.07
2023-02-27T18:03:04.469Z,2.13
2023-02-27T18:05:04.799Z,2.17
2023-02-27T18:07:05.069Z,2.14
2023-02-27T18:09:05.580Z,2.07
2023-02-27T18:11:05.914Z,2.06
2023-02-27T18:13:06.300Z,1.92
2023-02-27T18:15:06.619Z,1.81
2023-02-27T18:17:06.892Z,1.78
2023-02-27T18:19:07.202Z,1.80
2023-02-27T18:21:07.574Z,1.76
2023-02-27T18:23:07.911Z,1.71
2023-02-27T18:25:08.226Z,1.66
2023-02-27T18:27:08.510Z,1.67
2023-02-27T18:29:08.872Z,1.60
2023-02-27T18:31:09.189Z,1.52
2023-02-27T18:33:09.476Z,1.52
2023-02-27T18:35:09.825Z,1.49
2023-02-27T18:37:10.496Z,1.58
2023-02-27T18:39:10.825Z,1.63
2023-02-27T18:41:16.021Z,1.58
2023-02-27T18:43:16.305Z,1.41
2023-02-27T18:45:17.092Z,1.34
2023-02-27T18:47:17.376Z,1.22
2023-02-27T18:49:17.626Z,1.30
2023-02-27T18:51:18.122Z,1.24
2023-02-27T18:53:18.410Z,1.13
2023-02-27T18:55:18.693Z,1.02
2023-02-27T18:57:19.057Z,0.91
2023-02-27T18:59:19.319Z,1.06
2023-02-27T19:01:19.696Z,1.16
2023-02-27T19:03:20.175Z,1.28
2023-02-27T19:05:20.467Z,1.20
2023-02-27T19:07:21.015Z,1.26
2023-02-27T19:09:22.179Z,1.26
2023-02-27T19:11:22.539Z,1.16
2023-02-27T19:13:23.594Z,1.05
2023-02-27T19:15:23.861Z,1.06
2023-02-27T19:17:29.109Z,1.04
2023-02-27T19:19:29.402Z,0.98
2023-02-27T19:21:29.699Z,0.96
2023-02-27T19:23:30.007Z,0.91
2023-02-27T19:25:30.297Z,0.91
2023-02-27T19:27:30.867Z,0.87
2023-02-27T19:29:31.228Z,0.94
2023-02-27T19:31:31.685Z,0.87
2023-02-27T19:33:36.661Z,0.91
2023-02-27T19:35:36.985Z,0.92
2023-02-27T19:37:37.281Z,0.94
2023-02-27T19:39:37.622Z,0.95
2023-02-27T19:41:37.897Z,1.10
2023-02-27T19:43:38.193Z,1.26
2023-02-27T19:45:38.512Z,1.38
2023-02-27T19:47:38.791Z,1.41
2023-02-27T19:49:39.430Z,1.42
2023-02-27T19:51:39.749Z,1.32
2023-02-27T19:53:40.149Z,1.35
2023-02-27T19:55:40.815Z,1.45
2023-02-27T19:57:41.254Z,1.53
2023-02-27T19:59:41.691Z,1.50
2023-02-27T20:01:42.195Z,1.49
2023-02-27T20:03:43.838Z,1.37
2023-02-27T20:05:44.430Z,1.37
2023-02-27T20:07:44.774Z,1.37
2023-02-27T20:09:45.096Z,1.52
2023-02-27T20:11:45.464Z,1.55
2023-02-27T20:13:45.864Z,1.56
2023-02-27T20:15:46.116Z,1.55
2023-02-27T20:17:46.437Z,1.56
2023-02-27T20:19:46.739Z,1.66
2023-02-27T20:21:47.080Z,1.77
2023-02-27T20:23:47.390Z,1.91
2023-02-27T20:25:47.732Z,1.89
2023-02-27T20:27:48.051Z,1.87
2023-02-27T20:29:48.388Z,1.88
2023-02-27T20:31:48.793Z,1.81
2023-02-27T20:33:49.343Z,1.87
2023-02-27T20:35:49.755Z,1.85
2023-02-27T20:37:50.185Z,1.80
2023-02-27T20:39:50.538Z,1.78
2023-02-27T20:41:50.824Z,1.76
2023-02-27T20:43:51.101Z,1.74
2023-02-27T20:45:51.567Z,1.68
2023-02-27T20:47:51.897Z,1.73
2023-02-27T20:49:52.278Z,1.63
2023-02-27T20:51:52.591Z,1.53
2023-02-27T20:53:52.928Z,1.49
2023-02-27T20:55:53.231Z,1.42
2023-02-27T20:57:53.590Z,1.41
2023-02-27T20:59:53.949Z,1.31
2023-02-27T21:01:54.338Z,1.34
2023-02-27T21:03:54.772Z,1.30
2023-02-27T21:05:55.067Z,1.35
2023-02-27T21:07:55.406Z,1.32
2023-02-27T21:09:55.692Z,1.24
2023-02-27T21:11:56.006Z,1.17
2023-02-27T21:13:56.283Z,1.19
2023-02-27T21:15:56.689Z,1.16
2023-02-27T21:17:56.987Z,1.13
2023-02-27T21:19:57.341Z,1.17
2023-02-27T21:21:58.429Z,1.20
2023-02-27T21:25:08.261Z,1.14
2023-02-27T21:28:14.110Z,1.12
2023-02-27T21:31:24.990Z,1.06
2023-02-27T21:33:25.608Z,1.02
2023-02-27T21:35:26.237Z,0.99
2023-02-27T21:37:26.637Z,0.96
2023-02-27T21:39:27.107Z,1.02
2023-02-27T21:41:27.826Z,1.10
2023-02-27T21:43:28.440Z,1.17
2023-02-27T21:45:28.828Z,1.26
2023-02-27T21:47:29.338Z,1.22
2023-02-27T21:49:29.720Z,1.23
2023-02-27T21:51:40.082Z,1.24
2023-02-27T21:53:35.294Z,1.32
2023-02-27T21:55:35.777Z,1.32
2023-02-27T21:57:36.109Z,1.26
2023-02-27T21:59:36.493Z,1.34
2023-02-27T22:01:36.933Z,1.41
2023-02-27T22:03:37.333Z,1.44
2023-02-27T22:05:37.687Z,1.48
2023-02-27T22:07:38.057Z,1.52
2023-02-27T22:09:38.458Z,1.55
2023-02-27T22:11:38.781Z,1.52
2023-02-27T22:13:39.202Z,1.49
2023-02-27T22:15:39.540Z,1.41
2023-02-27T22:17:39.904Z,1.41
2023-02-27T22:19:40.289Z,1.35
2023-02-27T22:21:40.631Z,1.28
2023-02-27T22:23:41.010Z,1.17
2023-02-27T22:25:41.348Z,1.17
2023-02-27T22:27:41.770Z,1.12
2023-02-27T22:29:43.084Z,1.08
2023-02-27T22:31:43.524Z,1.06
2023-02-27T22:33:43.989Z,1.02
2023-02-27T22:35:44.341Z,0.96
2023-02-27T22:37:44.650Z,0.96
2023-02-27T22:39:45.222Z,0.98
2023-02-27T22:41:45.535Z,0.94
2023-02-27T22:43:45.935Z,0.96
2023-02-27T22:45:46.230Z,1.01
2023-02-27T22:47:46.602Z,0.94
2023-02-27T22:49:47.203Z,0.84
2023-02-27T22:51:49.711Z,0.66
2023-02-27T22:53:50.940Z,0.70
2023-02-27T22:55:51.316Z,0.58
2023-02-27T22:57:51.615Z,0.60
2023-02-27T22:59:51.956Z,0.69
2023-02-27T23:01:52.273Z,0.60
2023-02-27T23:03:52.870Z,0.63
2023-02-27T23:05:53.191Z,0.60
2023-02-27T23:07:53.486Z,0.50
2023-02-27T23:09:53.807Z,0.44
2023-02-27T23:11:54.114Z,0.37
2023-02-27T23:13:54.600Z,0.39
2023-02-27T23:15:54.989Z,0.36
2023-02-27T23:17:58.412Z,0.29
2023-02-27T23:19:58.875Z,0.22
2023-02-27T23:21:59.190Z,0.23
2023-02-27T23:23:59.552Z,0.19
2023-02-27T23:26:01.616Z,0.22
2023-02-27T23:28:02.112Z,0.19
2023-02-27T23:30:02.423Z,0.08
2023-02-27T23:32:02.799Z,0.03
2023-02-27T23:34:03.113Z,-0.07
2023-02-27T23:36:03.493Z,-0.08
2023-02-27T23:38:03.762Z,-0.10
2023-02-27T23:40:04.094Z,-0.14
2023-02-27T23:42:05.214Z,-0.11
2023-02-27T23:44:05.604Z,-0.11
2023-02-27T23:46:06.036Z,-0.13
2023-02-27T23:48:06.316Z,-0.08
2023-02-27T23:50:06.603Z,-0.15
2023-02-27T23:52:06.948Z,-0.15
2023-02-27T23:54:07.231Z,-0.20
2023-02-27T23:56:07.563Z,-0.21
2023-02-27T23:58:57.967Z,-0.26
